Terminal Aerodrome Forecast
Issued by NWS Wilmington, OH

Current Version | Previous Version | Graphics & Text | Print | Product List | Glossary On
Versions: 1 2 3 4 5 6 7 8 9 10 11 12 13 14 15 16 17 18 19 20 21
553
FTUS41 KILN 150529
TAFILN
TAF
KILN 150529Z 1506/1606 VRB03KT 3SM BR BKN200
      TEMPO 1506/1510 1 1/2SM BR
     FM151300 27005KT P6SM BKN050
     FM152300 VRB04KT P6SM SCT200=

USA.gov is the U.S. government's official web portal to all federal, state and local government web resources and services.